Time;durP1;ratioP1;P1;durP2;ratioP2;P2;SDS_P1;SDS_P2;PMS_P1;PMS_P2;Temp;Humidity;BMP_temperature;BMP_pressure;BME280_temperature;BME280_humidity;BME280_pressure;Samples;Min_cycle;Max_cycle;Signal;HPM_P1;HPM_P2
2022/01/09 00:00:44;;;;;;;2.80;2.10;;;;;;;2.39;100.00;97802.13;4984350;28;20228;-58
2022/01/09 00:03:09;;;;;;;2.13;1.80;;;;;;;2.37;100.00;97793.78;5016797;28;20223;-58
2022/01/09 00:05:35;;;;;;;4.40;2.10;;;;;;;2.38;100.00;97790.34;5006937;28;20192;-59
2022/01/09 00:08:00;;;;;;;3.77;2.50;;;;;;;2.42;100.00;97788.44;5008750;28;20664;-58
2022/01/09 00:10:28;;;;;;;2.70;2.23;;;;;;;2.44;100.00;97776.47;5001559;28;20240;-58
2022/01/09 00:12:53;;;;;;;4.63;2.27;;;;;;;2.48;100.00;97779.66;5015042;28;20178;-58
2022/01/09 00:15:19;;;;;;;1.97;1.77;;;;;;;2.54;100.00;97780.13;4986690;28;20210;-59
2022/01/09 00:17:44;;;;;;;3.50;2.20;;;;;;;2.61;100.00;97762.78;5004593;28;20693;-60
2022/01/09 00:20:11;;;;;;;3.77;2.30;;;;;;;2.57;100.00;97766.44;4982705;28;20210;-60
2022/01/09 00:22:44;;;;;;;4.03;1.83;;;;;;;2.56;100.00;97764.78;5019550;28;20189;-57
2022/01/09 00:25:10;;;;;;;2.60;1.90;;;;;;;2.51;100.00;97759.97;4990719;28;20267;-59
2022/01/09 00:27:38;;;;;;;2.50;1.93;;;;;;;2.51;100.00;97751.56;4999148;28;20669;-59
2022/01/09 00:30:08;;;;;;;6.60;2.67;;;;;;;2.51;100.00;97752.38;4991429;28;20205;-61
2022/01/09 00:32:34;;;;;;;4.20;2.23;;;;;;;2.59;100.00;97744.28;5006480;28;20257;-58
2022/01/09 00:35:00;;;;;;;2.33;1.90;;;;;;;2.55;100.00;97750.47;5011186;28;20224;-58
2022/01/09 00:37:26;;;;;;;3.63;1.90;;;;;;;2.51;100.00;97743.94;5011667;28;20193;-58
2022/01/09 00:39:52;;;;;;;4.07;2.10;;;;;;;2.51;100.00;97734.59;5011390;28;20205;-58
2022/01/09 00:42:17;;;;;;;3.23;2.40;;;;;;;2.53;100.00;97740.41;5000047;28;20236;-60
2022/01/09 00:44:43;;;;;;;4.07;2.43;;;;;;;2.50;100.00;97734.69;5011192;28;20176;-58
2022/01/09 00:47:08;;;;;;;5.53;2.40;;;;;;;2.56;100.00;97735.13;5011531;28;20634;-57
2022/01/09 00:49:34;;;;;;;2.83;2.40;;;;;;;2.58;100.00;97730.81;5011486;28;20188;-57
2022/01/09 00:51:59;;;;;;;3.83;2.10;;;;;;;2.61;100.00;97723.91;5015295;28;20231;-57
2022/01/09 00:54:24;;;;;;;2.63;2.00;;;;;;;2.56;100.00;97716.56;5011508;28;20235;-58
2022/01/09 00:56:49;;;;;;;4.50;2.40;;;;;;;2.57;100.00;97716.47;5011214;28;20180;-58
2022/01/09 00:59:15;;;;;;;3.27;2.27;;;;;;;2.59;100.00;97716.38;5011298;28;20248;-58
2022/01/09 01:01:40;;;;;;;2.17;1.97;;;;;;;2.64;100.00;97705.94;5013540;28;20233;-58
2022/01/09 01:04:05;;;;;;;2.67;2.07;;;;;;;2.62;100.00;97706.06;5013540;28;20181;-57
2022/01/09 01:06:31;;;;;;;3.17;2.03;;;;;;;2.60;100.00;97704.50;5011257;28;20220;-57
2022/01/09 01:08:56;;;;;;;5.97;1.73;;;;;;;2.67;100.00;97696.44;5011153;28;20177;-58
2022/01/09 01:11:23;;;;;;;3.00;1.87;;;;;;;2.67;100.00;97705.78;5010850;28;20236;-58
2022/01/09 01:13:48;;;;;;;2.60;1.90;;;;;;;2.65;100.00;97699.97;5016110;28;20196;-56
2022/01/09 01:16:13;;;;;;;2.20;1.83;;;;;;;2.65;100.00;97692.34;5011226;28;20177;-58
2022/01/09 01:18:43;;;;;;;2.37;1.93;;;;;;;2.66;100.00;97691.44;5010985;28;20220;-57
2022/01/09 01:21:08;;;;;;;2.53;1.70;;;;;;;2.67;100.00;97685.47;5009362;28;20732;-56
2022/01/09 01:23:34;;;;;;;4.20;1.30;;;;;;;2.80;100.00;97690.59;5017470;28;20182;-59
2022/01/09 01:26:01;;;;;;;1.63;1.30;;;;;;;2.69;100.00;97681.94;5010636;28;20260;-58
2022/01/09 01:28:27;;;;;;;2.17;1.70;;;;;;;2.81;100.00;97687.16;5011003;28;20174;-57
2022/01/09 01:30:52;;;;;;;3.23;1.60;;;;;;;2.77;100.00;97678.09;5007104;28;20232;-58
2022/01/09 01:33:18;;;;;;;1.90;1.30;;;;;;;2.80;100.00;97677.91;5019763;28;20264;-59
2022/01/09 01:35:44;;;;;;;4.50;1.70;;;;;;;2.76;100.00;97677.28;5010857;28;20287;-57
2022/01/09 01:38:09;;;;;;;1.33;1.10;;;;;;;2.85;100.00;97678.44;5010801;28;20198;-57
2022/01/09 01:40:34;;;;;;;2.37;1.40;;;;;;;2.94;100.00;97671.97;5004741;28;20282;-58
2022/01/09 01:43:00;;;;;;;1.70;1.30;;;;;;;2.72;100.00;97669.03;5021880;28;20181;-58
2022/01/09 01:45:25;;;;;;;1.03;1.00;;;;;;;2.66;100.00;97669.41;5009120;28;20268;-58
2022/01/09 01:47:50;;;;;;;1.40;1.20;;;;;;;2.82;100.00;97659.13;5010724;28;20608;-58
2022/01/09 01:50:16;;;;;;;1.17;0.90;;;;;;;2.80;100.00;97660.94;5002313;28;20213;-58
2022/01/09 01:52:47;;;;;;;1.23;1.07;;;;;;;2.87;100.00;97662.19;5024013;28;20229;-58
2022/01/09 01:55:13;;;;;;;1.47;1.17;;;;;;;2.88;100.00;97660.50;5010327;28;20198;-58
2022/01/09 01:57:40;;;;;;;2.40;1.10;;;;;;;2.90;100.00;97654.41;5011034;28;20268;-59
2022/01/09 02:00:08;;;;;;;1.10;1.00;;;;;;;2.69;100.00;97654.00;5001019;28;20189;-59
2022/01/09 02:02:34;;;;;;;1.27;1.17;;;;;;;2.88;100.00;97655.41;5025256;28;20177;-59
2022/01/09 02:04:59;;;;;;;1.10;0.90;;;;;;;2.98;100.00;97653.91;5013551;28;20181;-59
2022/01/09 02:07:27;;;;;;;0.70;0.70;;;;;;;2.85;100.00;97650.50;5014223;28;20173;-59
2022/01/09 02:09:52;;;;;;;1.40;1.30;;;;;;;2.86;100.00;97649.59;5014059;28;20651;-59
2022/01/09 02:12:18;;;;;;;1.87;1.53;;;;;;;2.99;100.00;97639.47;5019629;28;20232;-59
2022/01/09 02:14:46;;;;;;;3.30;1.60;;;;;;;2.94;100.00;97641.50;5014080;28;20181;-58
2022/01/09 02:17:17;;;;;;;1.63;1.27;;;;;;;2.93;100.00;97644.94;5014184;28;20195;-59
2022/01/09 02:19:56;;;;;;;1.30;1.20;;;;;;;2.93;100.00;97652.56;5013932;28;20809;-59
2022/01/09 02:22:30;;;;;;;1.13;1.03;;;;;;;3.01;100.00;97643.53;5019255;28;20233;-59
2022/01/09 02:24:57;;;;;;;0.70;0.70;;;;;;;3.05;100.00;97652.63;5014169;28;20183;-59
2022/01/09 02:27:23;;;;;;;0.70;0.70;;;;;;;3.09;100.00;97654.97;5013972;28;20186;-59
2022/01/09 02:29:48;;;;;;;1.33;0.80;;;;;;;3.10;100.00;97661.66;5013824;28;20274;-59
2022/01/09 02:32:16;;;;;;;0.80;0.80;;;;;;;3.00;100.00;97659.72;5019198;28;20232;-58
2022/01/09 02:34:45;;;;;;;0.70;0.70;;;;;;;3.01;100.00;97663.88;5013299;28;20236;-58
2022/01/09 02:37:10;;;;;;;2.03;0.80;;;;;;;3.01;100.00;97657.97;5013919;28;20186;-59
2022/01/09 02:39:35;;;;;;;0.70;0.70;;;;;;;3.03;100.00;97664.59;5013638;28;20260;-59
2022/01/09 02:42:01;;;;;;;0.73;0.73;;;;;;;3.08;100.00;97674.47;5018751;28;20690;-58
2022/01/09 02:44:26;;;;;;;0.80;0.80;;;;;;;3.15;100.00;97673.19;5013556;28;20190;-59
2022/01/09 02:47:06;;;;;;;1.53;0.80;;;;;;;3.18;100.00;97675.50;5017704;28;20177;-58
2022/01/09 02:49:32;;;;;;;1.00;0.63;;;;;;;3.25;100.00;97675.13;5033038;28;20255;-57
2022/01/09 02:51:58;;;;;;;0.83;0.77;;;;;;;3.30;100.00;97668.03;5021842;28;20302;-58
2022/01/09 02:57:07;;;;;;;1.00;0.83;;;;;;;3.30;100.00;97681.56;5007319;28;20243;-57
2022/01/09 02:59:32;;;;;;;0.83;0.80;;;;;;;3.25;100.00;97675.13;5013139;28;20214;-58
2022/01/09 03:01:57;;;;;;;0.60;0.60;;;;;;;3.23;100.00;97682.84;5001170;28;20666;-57
2022/01/09 03:04:23;;;;;;;1.80;0.70;;;;;;;3.26;100.00;97682.66;5012991;28;20632;-57
2022/01/09 03:06:48;;;;;;;0.60;0.60;;;;;;;3.20;100.00;97691.50;5013201;28;20197;-58
2022/01/09 03:09:13;;;;;;;0.57;0.57;;;;;;;3.22;100.00;97689.69;5013419;28;20208;-57
2022/01/09 03:11:40;;;;;;;1.00;0.87;;;;;;;3.27;100.00;97694.44;5014812;28;20245;-58
2022/01/09 03:14:07;;;;;;;0.73;0.73;;;;;;;3.25;100.00;97700.53;5015643;28;20174;-57
2022/01/09 03:16:34;;;;;;;0.60;0.60;;;;;;;3.19;100.00;97702.56;5012294;28;20178;-58
2022/01/09 03:18:59;;;;;;;0.57;0.57;;;;;;;3.14;100.00;97707.13;5012967;28;20695;-57
2022/01/09 03:21:25;;;;;;;0.67;0.67;;;;;;;3.13;100.00;97709.75;5012897;28;20233;-58
2022/01/09 03:23:50;;;;;;;0.60;0.60;;;;;;;3.01;100.00;97707.03;5017398;28;20177;-57
2022/01/09 03:26:15;;;;;;;0.70;0.70;;;;;;;3.03;100.00;97715.41;5012841;28;20186;-57
2022/01/09 03:28:40;;;;;;;0.67;0.67;;;;;;;3.19;100.00;97720.34;5012556;28;20178;-57
2022/01/09 03:31:06;;;;;;;1.07;0.70;;;;;;;3.05;100.00;97718.66;5010658;28;20757;-57
2022/01/09 03:33:31;;;;;;;2.00;0.80;;;;;;;3.03;100.00;97729.84;5019434;28;20214;-57
2022/01/09 03:35:56;;;;;;;0.83;0.63;;;;;;;3.06;100.00;97740.63;5012604;28;20186;-57
2022/01/09 03:38:22;;;;;;;0.60;0.60;;;;;;;3.05;100.00;97745.78;5012480;28;20682;-57
2022/01/09 03:40:47;;;;;;;0.60;0.60;;;;;;;3.01;100.00;97740.06;5007907;28;20331;-57
2022/01/09 03:43:12;;;;;;;0.90;0.90;;;;;;;2.89;100.00;97756.03;5011343;28;20634;-58
2022/01/09 03:45:37;;;;;;;2.73;0.60;;;;;;;2.95;100.00;97762.50;5012487;28;20574;-57
2022/01/09 03:48:03;;;;;;;0.43;0.43;;;;;;;2.99;100.00;97766.47;5026457;28;20208;-57
2022/01/09 03:50:28;;;;;;;0.70;0.57;;;;;;;2.96;100.00;97759.84;5021842;28;20320;-57
2022/01/09 03:52:54;;;;;;;0.60;0.60;;;;;;;2.96;100.00;97766.66;5031086;28;20633;-57
2022/01/09 03:55:22;;;;;;;0.47;0.47;;;;;;;2.94;100.00;97773.56;5031669;28;20173;-57
2022/01/09 03:57:48;;;;;;;0.50;0.50;;;;;;;2.89;100.00;97766.19;5031831;28;20180;-57
2022/01/09 04:00:19;;;;;;;0.30;0.30;;;;;;;2.88;100.00;97775.56;5011446;28;20204;-57
2022/01/09 04:02:46;;;;;;;0.60;0.60;;;;;;;2.86;100.00;97774.81;5031281;28;20243;-57
2022/01/09 04:05:11;;;;;;;0.40;0.40;;;;;;;2.86;100.00;97782.44;5031592;28;20180;-57
2022/01/09 04:07:37;;;;;;;0.40;0.40;;;;;;;2.90;100.00;97776.28;5031898;28;20181;-57
2022/01/09 04:10:06;;;;;;;0.30;0.30;;;;;;;2.98;100.00;97785.19;5018371;28;20201;-58
2022/01/09 04:12:46;;;;;;;0.23;0.23;;;;;;;2.93;100.00;97787.97;5013216;28;20198;-57
2022/01/09 04:15:11;;;;;;;0.37;0.37;;;;;;;2.91;100.00;97792.31;5003253;28;20181;-57
2022/01/09 04:17:52;;;;;;;2.10;0.40;;;;;;;2.96;100.00;97792.06;5025765;28;20189;-58
2022/01/09 04:20:22;;;;;;;0.57;0.40;;;;;;;2.96;100.00;97800.47;5003670;28;20210;-58
2022/01/09 04:22:49;;;;;;;0.33;0.33;;;;;;;2.97;100.00;97811.47;5024507;28;20189;-57
2022/01/09 04:25:15;;;;;;;0.87;0.40;;;;;;;3.00;100.00;97808.75;5011528;28;20174;-57
2022/01/09 04:27:41;;;;;;;0.50;0.40;;;;;;;2.98;100.00;97829.16;5011826;28;20180;-57
2022/01/09 04:30:07;;;;;;;0.30;0.30;;;;;;;2.96;100.00;97848.75;4986338;28;20193;-57
2022/01/09 04:32:33;;;;;;;0.50;0.50;;;;;;;2.95;100.00;97851.38;5026957;28;20565;-57
2022/01/09 04:34:58;;;;;;;0.30;0.30;;;;;;;2.94;100.00;97859.91;5012538;28;20268;-57
2022/01/09 04:37:24;;;;;;;0.40;0.40;;;;;;;2.97;100.00;97868.16;5020269;28;20204;-57
2022/01/09 04:39:51;;;;;;;0.30;0.30;;;;;;;2.94;100.00;97883.59;5023078;28;20222;-57
2022/01/09 04:42:17;;;;;;;1.17;0.57;;;;;;;2.90;100.00;97898.19;5017848;28;20287;-57
2022/01/09 04:44:43;;;;;;;0.53;0.50;;;;;;;2.89;100.00;97908.41;5011374;28;20279;-57
2022/01/09 04:47:13;;;;;;;0.50;0.50;;;;;;;2.84;100.00;97907.88;5011545;28;20673;-57
2022/01/09 04:49:41;;;;;;;0.87;0.43;;;;;;;2.87;100.00;97917.84;5011172;28;20183;-57
2022/01/09 04:52:10;;;;;;;0.73;0.57;;;;;;;2.78;100.00;97939.53;5016951;28;20227;-58
2022/01/09 04:54:36;;;;;;;0.57;0.40;;;;;;;2.78;100.00;97954.75;5011060;28;20249;-58
2022/01/09 04:57:02;;;;;;;0.33;0.33;;;;;;;2.76;100.00;97961.63;5011225;28;20177;-58
2022/01/09 04:59:28;;;;;;;0.40;0.40;;;;;;;2.78;100.00;97975.06;5010944;28;20675;-58
2022/01/09 05:01:53;;;;;;;0.47;0.47;;;;;;;2.62;100.00;97972.56;5015344;28;20231;-58
2022/01/09 05:04:19;;;;;;;0.30;0.30;;;;;;;2.63;100.00;97978.44;5011911;28;20174;-58
2022/01/09 05:06:44;;;;;;;0.40;0.40;;;;;;;2.63;100.00;97986.06;5009872;28;20281;-58
2022/01/09 05:09:10;;;;;;;0.40;0.40;;;;;;;2.61;100.00;97987.91;5011219;28;20188;-58
2022/01/09 05:11:36;;;;;;;0.93;0.57;;;;;;;2.61;100.00;97998.06;5012816;28;20231;-58
2022/01/09 05:14:01;;;;;;;0.97;0.60;;;;;;;2.62;100.00;97992.03;5014168;28;20179;-58
2022/01/09 05:16:27;;;;;;;2.67;0.70;;;;;;;2.57;100.00;97992.31;5011206;28;20180;-58
2022/01/09 05:19:01;;;;;;;0.40;0.40;;;;;;;2.57;100.00;98005.81;5010779;28;20196;-58
2022/01/09 05:21:27;;;;;;;0.53;0.53;;;;;;;2.58;100.00;98004.91;5011858;28;20280;-58
2022/01/09 05:23:52;;;;;;;1.33;0.60;;;;;;;2.56;100.00;97995.75;5015284;28;20172;-58
2022/01/09 05:26:17;;;;;;;0.97;0.50;;;;;;;2.66;100.00;98014.63;5010892;28;20234;-58
2022/01/09 05:28:43;;;;;;;0.83;0.60;;;;;;;2.61;100.00;98011.53;5010960;28;20178;-57
2022/01/09 05:31:08;;;;;;;1.70;0.60;;;;;;;2.64;100.00;98023.25;5009200;28;20240;-58
2022/01/09 05:33:33;;;;;;;0.80;0.60;;;;;;;2.63;100.00;98022.44;5017499;28;20185;-58
2022/01/09 05:35:59;;;;;;;1.77;0.87;;;;;;;2.70;100.00;98036.41;5009428;28;20846;-58
2022/01/09 05:38:24;;;;;;;2.33;0.80;;;;;;;2.73;100.00;98043.06;5011463;28;20208;-58
2022/01/09 05:40:49;;;;;;;3.97;0.90;;;;;;;2.73;100.00;98054.03;5010689;28;20238;-58
2022/01/09 05:43:15;;;;;;;3.60;1.03;;;;;;;2.71;100.00;98055.81;5023887;28;20630;-58
2022/01/09 05:45:40;;;;;;;2.23;0.90;;;;;;;2.74;100.00;98065.81;5014389;28;20178;-58
2022/01/09 05:48:06;;;;;;;3.87;1.30;;;;;;;2.77;100.00;98077.53;5014596;28;20178;-58
2022/01/09 05:50:32;;;;;;;1.20;1.00;;;;;;;2.80;100.00;98074.00;5008239;28;20231;-58
2022/01/09 05:52:57;;;;;;;1.60;1.20;;;;;;;2.84;100.00;98093.22;5025741;28;20305;-58
2022/01/09 05:55:22;;;;;;;0.87;0.80;;;;;;;2.79;100.00;98100.28;5014081;28;20180;-57
2022/01/09 05:57:47;;;;;;;2.33;1.07;;;;;;;2.79;100.00;98097.75;5013109;28;20233;-58
2022/01/09 06:00:14;;;;;;;3.73;1.37;;;;;;;2.80;100.00;98094.31;5005633;28;20700;-58
2022/01/09 06:02:40;;;;;;;3.67;1.00;;;;;;;2.77;100.00;98094.47;5027841;28;20530;-58
2022/01/09 06:05:07;;;;;;;2.60;1.03;;;;;;;2.79;100.00;98115.53;5014063;28;20181;-58
2022/01/09 06:07:32;;;;;;;3.83;1.30;;;;;;;2.73;100.00;98107.34;5013218;28;20215;-58
2022/01/09 06:09:57;;;;;;;1.37;0.87;;;;;;;2.72;100.00;98108.25;5014252;28;20619;-58
2022/01/09 06:12:23;;;;;;;4.93;1.27;;;;;;;2.78;100.00;98119.78;5019640;28;20331;-58
2022/01/09 06:14:48;;;;;;;3.37;1.50;;;;;;;2.78;100.00;98119.78;5013949;28;20666;-58
2022/01/09 06:17:13;;;;;;;3.23;1.70;;;;;;;2.80;100.00;98130.66;5013877;28;20187;-58
2022/01/09 06:19:39;;;;;;;2.70;1.40;;;;;;;2.77;100.00;98146.09;5014025;28;20359;-59
2022/01/09 06:22:04;;;;;;;3.23;1.70;;;;;;;2.86;100.00;98143.03;5019202;28;20232;-58
2022/01/09 06:24:29;;;;;;;3.13;1.63;;;;;;;2.84;100.00;98160.09;5013808;28;20184;-59
2022/01/09 06:26:55;;;;;;;2.87;1.70;;;;;;;2.84;100.00;98155.00;5014118;28;20210;-57
2022/01/09 06:29:20;;;;;;;4.07;1.43;;;;;;;2.92;100.00;98157.13;5013993;28;20182;-58
2022/01/09 06:31:45;;;;;;;4.43;1.80;;;;;;;2.89;100.00;98159.81;5016578;28;20614;-58
2022/01/09 06:34:12;;;;;;;4.83;2.17;;;;;;;2.98;100.00;98166.97;5015667;28;20732;-57
2022/01/09 06:36:37;;;;;;;5.63;2.47;;;;;;;2.95;100.00;98179.81;5014161;28;20186;-58
2022/01/09 06:39:03;;;;;;;5.87;2.13;;;;;;;3.02;100.00;98191.28;5013748;28;20296;-58
2022/01/09 06:41:28;;;;;;;5.67;2.00;;;;;;;3.03;100.00;98195.47;5014343;28;20707;-58
2022/01/09 06:43:53;;;;;;;7.23;2.33;;;;;;;3.03;100.00;98200.53;5017538;28;20174;-58
2022/01/09 06:46:19;;;;;;;8.50;2.60;;;;;;;3.05;100.00;98213.16;5013572;28;20182;-58
2022/01/09 06:48:44;;;;;;;8.47;2.60;;;;;;;3.04;100.00;98216.63;5013566;28;20522;-58
2022/01/09 06:51:10;;;;;;;8.00;2.27;;;;;;;3.08;100.00;98223.16;5010649;28;20850;-58
2022/01/09 06:53:35;;;;;;;6.17;2.70;;;;;;;3.07;100.00;98226.59;5019990;28;20257;-58
2022/01/09 06:56:01;;;;;;;13.23;2.67;;;;;;;3.14;100.00;98243.16;5013412;28;20263;-58
2022/01/09 06:58:26;;;;;;;8.30;2.83;;;;;;;3.10;100.00;98239.16;5013576;28;20578;-58
2022/01/09 07:00:52;;;;;;;6.57;1.97;;;;;;;3.15;100.00;98246.50;5009501;28;20240;-58
2022/01/09 07:03:18;;;;;;;7.90;2.63;;;;;;;3.16;100.00;98255.78;5022401;28;20167;-58
2022/01/09 07:05:43;;;;;;;7.37;2.33;;;;;;;3.10;100.00;98264.56;5013240;28;20184;-57
2022/01/09 07:08:09;;;;;;;10.10;2.30;;;;;;;3.16;100.00;98261.69;5013745;28;20583;-57
2022/01/09 07:10:34;;;;;;;9.27;2.60;;;;;;;3.18;100.00;98267.50;5007209;28;20225;-57
2022/01/09 07:12:59;;;;;;;7.60;2.47;;;;;;;3.15;100.00;98282.06;5024605;28;20173;-57
2022/01/09 07:15:24;;;;;;;7.07;2.60;;;;;;;3.17;100.00;98285.38;5012734;28;20175;-57
2022/01/09 07:17:50;;;;;;;9.90;2.70;;;;;;;3.20;100.00;98297.91;5012969;28;20186;-58
2022/01/09 07:20:15;;;;;;;7.90;2.73;;;;;;;3.21;100.00;98304.63;5004308;28;20230;-58
2022/01/09 07:22:40;;;;;;;6.17;2.60;;;;;;;3.21;100.00;98304.63;5026650;28;20178;-57
2022/01/09 07:25:06;;;;;;;7.93;2.40;;;;;;;3.31;100.00;98305.78;5006887;28;20655;-57
2022/01/09 07:27:33;;;;;;;11.10;2.87;;;;;;;3.20;100.00;98313.97;4980936;28;20197;-58
2022/01/09 07:29:58;;;;;;;7.30;2.37;;;;;;;3.30;100.00;98326.19;4998673;28;20276;-58
2022/01/09 07:32:24;;;;;;;8.87;2.47;;;;;;;3.33;100.00;98333.66;4994700;28;20640;-58
2022/01/09 07:34:49;;;;;;;8.50;2.60;;;;;;;3.24;100.00;98329.88;4999604;28;20221;-58
2022/01/09 07:37:15;;;;;;;5.27;2.10;;;;;;;3.25;100.00;98333.22;4995242;28;20185;-58
2022/01/09 07:39:40;;;;;;;5.43;2.50;;;;;;;3.25;100.00;98343.41;4993913;28;20218;-58
2022/01/09 07:42:05;;;;;;;7.30;2.87;;;;;;;3.27;100.00;98346.69;5016792;28;20229;-58
2022/01/09 07:44:31;;;;;;;8.77;2.47;;;;;;;3.25;100.00;98358.66;5023154;28;20188;-58
2022/01/09 07:46:56;;;;;;;5.57;2.00;;;;;;;3.28;100.00;98358.50;5026990;28;20186;-58
2022/01/09 07:49:23;;;;;;;4.73;2.33;;;;;;;3.29;100.00;98366.03;5019928;28;20551;-58
2022/01/09 07:51:49;;;;;;;5.93;2.50;;;;;;;3.26;100.00;98373.00;5020560;28;20244;-58
2022/01/09 07:54:14;;;;;;;9.27;3.00;;;;;;;3.25;100.00;98371.34;5013894;28;20179;-58
2022/01/09 07:56:39;;;;;;;9.10;2.70;;;;;;;3.27;100.00;98377.19;5012262;28;20196;-58
2022/01/09 07:59:05;;;;;;;6.10;2.17;;;;;;;3.30;100.00;98394.78;4999078;28;20549;-58
2022/01/09 08:01:30;;;;;;;8.87;1.97;;;;;;;3.30;100.00;98394.78;4997973;28;20233;-58
2022/01/09 08:03:55;;;;;;;8.27;2.87;;;;;;;3.30;100.00;98405.81;5017312;28;20192;-58
2022/01/09 08:06:21;;;;;;;7.37;2.10;;;;;;;3.35;100.00;98411.47;5022741;28;20217;-58
2022/01/09 08:08:46;;;;;;;10.87;2.53;;;;;;;3.32;100.00;98426.03;5031402;28;20185;-57
2022/01/09 08:11:11;;;;;;;7.83;1.93;;;;;;;3.36;100.00;98420.72;5021126;28;20708;-58
2022/01/09 08:13:37;;;;;;;5.50;1.97;;;;;;;3.36;100.00;98433.44;5017955;28;20170;-58
2022/01/09 08:16:02;;;;;;;8.90;2.30;;;;;;;3.34;100.00;98435.22;5009467;28;20226;-58
2022/01/09 08:18:27;;;;;;;5.90;2.23;;;;;;;3.47;100.00;98448.13;5019557;28;20280;-58
2022/01/09 08:20:53;;;;;;;8.03;2.20;;;;;;;3.44;100.00;98450.81;5008259;28;20244;-57
2022/01/09 08:23:18;;;;;;;6.37;2.30;;;;;;;3.45;100.00;98444.84;5011241;28;20186;-58
2022/01/09 08:25:44;;;;;;;5.27;1.93;;;;;;;3.57;100.00;98452.75;5012378;28;20175;-57
2022/01/09 08:28:10;;;;;;;9.27;2.33;;;;;;;3.69;100.00;98460.53;5012588;28;20182;-57
2022/01/09 08:30:35;;;;;;;11.93;2.30;;;;;;;3.69;100.00;98472.44;4986566;28;20320;-57
2022/01/09 08:33:00;;;;;;;5.60;2.30;;;;;;;3.71;100.00;98474.00;5024945;28;20643;-58
2022/01/09 08:35:26;;;;;;;4.53;2.10;;;;;;;3.67;100.00;98492.03;5012967;28;20190;-58
2022/01/09 08:37:51;;;;;;;10.30;2.50;;;;;;;3.63;100.00;98498.19;5012366;28;20171;-58
2022/01/09 08:40:22;;;;;;;5.93;2.30;;;;;;;3.62;100.00;98499.09;5005250;28;20345;-59
2022/01/09 08:42:49;;;;;;;8.00;2.00;;;;;;;3.72;100.00;98502.78;5043984;28;20635;-58
2022/01/09 08:45:16;;;;;;;6.43;2.30;;;;;;;3.71;100.00;98512.16;5031025;28;20182;-59
2022/01/09 08:47:42;;;;;;;7.60;2.30;;;;;;;3.75;100.00;98509.47;5031189;28;20676;-58
2022/01/09 08:50:10;;;;;;;5.80;2.13;;;;;;;3.67;100.00;98515.75;5020700;28;20198;-59
2022/01/09 08:52:35;;;;;;;8.70;2.20;;;;;;;3.72;100.00;98516.34;5025691;28;20170;-58
2022/01/09 08:55:02;;;;;;;7.50;2.17;;;;;;;3.79;100.00;98523.66;5011257;28;20567;-59
2022/01/09 08:57:27;;;;;;;5.77;1.90;;;;;;;3.84;100.00;98531.84;5011512;28;20185;-59
2022/01/09 08:59:53;;;;;;;5.87;2.30;;;;;;;3.86;100.00;98532.59;5011371;28;20215;-58
2022/01/09 09:02:19;;;;;;;7.97;2.63;;;;;;;3.83;100.00;98531.06;5016720;28;20257;-58
2022/01/09 09:04:44;;;;;;;7.83;2.27;;;;;;;4.04;100.00;98540.97;5011305;28;20186;-59
2022/01/09 09:07:10;;;;;;;7.10;2.13;;;;;;;4.09;100.00;98544.09;5011444;28;20179;-58
2022/01/09 09:09:37;;;;;;;6.80;2.67;;;;;;;4.22;99.30;98549.38;5011101;28;20202;-58
2022/01/09 09:12:02;;;;;;;7.37;1.97;;;;;;;4.20;98.38;98548.63;5015817;28;20283;-58
2022/01/09 09:14:28;;;;;;;3.10;1.70;;;;;;;4.18;98.04;98545.34;5010294;28;20182;-59
2022/01/09 09:16:53;;;;;;;10.37;2.03;;;;;;;4.26;97.71;98544.94;5011059;28;20179;-59
2022/01/09 09:19:19;;;;;;;7.93;2.00;;;;;;;4.25;96.87;98551.75;5010881;28;20206;-58
2022/01/09 09:21:46;;;;;;;6.70;1.80;;;;;;;4.23;96.75;98561.22;5013703;28;20229;-58
2022/01/09 09:24:12;;;;;;;7.97;2.10;;;;;;;4.30;96.74;98554.06;5025784;28;20177;-58
2022/01/09 09:26:38;;;;;;;4.30;1.60;;;;;;;4.28;95.86;98560.94;5010751;28;20660;-58
2022/01/09 09:29:05;;;;;;;7.03;2.33;;;;;;;4.30;95.64;98572.69;5010664;28;20257;-58
2022/01/09 09:31:31;;;;;;;8.00;1.83;;;;;;;4.18;95.89;98571.63;5011996;28;20233;-58
2022/01/09 09:33:58;;;;;;;4.40;1.70;;;;;;;4.19;95.87;98580.06;5014577;28;20179;-58
2022/01/09 09:36:24;;;;;;;6.80;2.17;;;;;;;4.15;94.40;98581.94;5010674;28;20218;-57
2022/01/09 09:38:50;;;;;;;5.07;1.83;;;;;;;4.24;94.50;98587.47;5010849;28;20257;-58
2022/01/09 09:41:16;;;;;;;6.33;1.67;;;;;;;4.30;94.53;98589.69;5010254;28;20239;-59
2022/01/09 09:43:41;;;;;;;8.77;2.33;;;;;;;4.38;94.52;98596.91;5016559;28;20182;-58
2022/01/09 09:46:06;;;;;;;2.93;1.70;;;;;;;4.36;94.26;98604.66;5010919;28;20182;-58
2022/01/09 09:48:32;;;;;;;5.90;2.13;;;;;;;4.33;94.68;98604.81;5010564;28;20174;-58
2022/01/09 09:50:57;;;;;;;7.53;2.00;;;;;;;4.32;94.50;98613.34;5007290;28;20734;-58
2022/01/09 09:53:23;;;;;;;5.33;1.70;;;;;;;4.57;94.28;98612.88;5018489;28;20206;-58
2022/01/09 09:55:51;;;;;;;3.70;1.57;;;;;;;4.68;91.63;98622.47;5009940;28;20179;-57
2022/01/09 09:58:17;;;;;;;3.83;1.40;;;;;;;5.10;90.66;98620.22;5010739;28;20197;-58
2022/01/09 10:00:51;;;;;;;3.93;1.53;;;;;;;5.52;87.55;98626.34;5005756;28;20230;-58
2022/01/09 10:03:26;;;;;;;2.63;1.50;;;;;;;5.62;85.04;98624.91;5019196;28;20271;-58
2022/01/09 10:05:51;;;;;;;5.90;1.90;;;;;;;5.89;84.75;98636.97;5010182;28;20259;-57
2022/01/09 10:08:17;;;;;;;4.80;2.00;;;;;;;6.24;82.93;98621.31;5010141;28;20543;-58
2022/01/09 10:10:43;;;;;;;5.67;2.07;;;;;;;5.94;82.82;98629.03;5004900;28;20243;-58
2022/01/09 10:13:17;;;;;;;4.50;1.63;;;;;;;5.47;83.11;98644.47;5020283;28;20651;-58
2022/01/09 10:15:56;;;;;;;5.30;1.80;;;;;;;5.23;85.54;98639.00;5010306;28;20292;-58
2022/01/09 10:18:43;;;;;;;5.73;2.13;;;;;;;5.01;86.98;98642.75;5010313;28;20198;-58
2022/01/09 10:21:13;;;;;;;7.10;1.70;;;;;;;4.87;87.72;98646.97;5008037;28;20233;-58
2022/01/09 10:24:03;;;;;;;9.37;2.13;;;;;;;4.61;88.50;98647.44;5016302;28;20202;-58
2022/01/09 10:26:30;;;;;;;8.33;2.50;;;;;;;4.57;89.50;98653.59;5013694;28;20187;-57
2022/01/09 10:28:56;;;;;;;9.63;2.43;;;;;;;4.43;89.77;98656.06;5013478;28;20179;-57
2022/01/09 10:31:21;;;;;;;3.90;1.90;;;;;;;4.36;89.95;98660.66;5013414;28;21060;-57
2022/01/09 10:34:02;;;;;;;10.40;2.47;;;;;;;4.46;90.81;98663.53;5018683;28;20202;-57
2022/01/09 10:36:42;;;;;;;7.37;1.87;;;;;;;4.36;90.08;98664.00;5013785;28;20213;-57
2022/01/09 10:39:13;;;;;;;2.87;2.00;;;;;;;4.43;89.08;98664.53;5013641;28;20199;-59
2022/01/09 10:41:56;;;;;;;3.77;1.70;;;;;;;4.38;89.54;98676.69;5015542;28;20316;-58
2022/01/09 10:44:30;;;;;;;6.00;2.00;;;;;;;4.31;90.53;98678.72;5014612;28;20190;-58
2022/01/09 10:47:03;;;;;;;3.80;1.67;;;;;;;4.30;90.32;98684.69;5012229;28;20181;-59
2022/01/09 10:49:37;;;;;;;6.63;1.93;;;;;;;4.46;89.70;98673.72;5012272;28;20166;-58
2022/01/09 10:52:21;;;;;;;4.67;1.83;;;;;;;4.47;89.02;98676.19;5018909;28;20265;-59
2022/01/09 10:54:48;;;;;;;6.37;1.60;;;;;;;4.58;88.25;98678.19;5013314;28;20179;-59
2022/01/09 10:57:17;;;;;;;6.07;2.30;;;;;;;4.80;87.67;98674.47;5013513;28;20582;-59
2022/01/09 10:59:44;;;;;;;8.77;2.07;;;;;;;4.90;87.31;98667.16;5013375;28;20225;-59
2022/01/09 11:02:12;;;;;;;8.47;2.00;;;;;;;4.97;86.86;98681.22;5018343;28;20352;-60
2022/01/09 11:04:37;;;;;;;4.47;1.93;;;;;;;5.08;85.49;98681.47;5012640;28;20261;-59
2022/01/09 11:07:03;;;;;;;4.17;1.50;;;;;;;5.13;84.32;98678.66;5012933;28;20262;-59
2022/01/09 11:09:30;;;;;;;6.47;2.00;;;;;;;5.10;83.72;98689.03;5012850;28;20208;-59
2022/01/09 11:11:57;;;;;;;6.07;1.90;;;;;;;5.25;83.53;98685.63;5017365;28;20221;-60
2022/01/09 11:14:24;;;;;;;4.70;2.10;;;;;;;4.98;83.11;98675.22;5013116;28;20211;-59
2022/01/09 11:16:54;;;;;;;8.63;1.73;;;;;;;5.16;84.04;98681.06;5013073;28;20175;-58
2022/01/09 11:19:25;;;;;;;4.00;1.90;;;;;;;5.22;83.78;98682.44;5011380;28;20199;-58
2022/01/09 11:22:02;;;;;;;5.07;1.70;;;;;;;5.36;84.11;98687.59;5016772;28;20890;-58
2022/01/09 11:24:42;;;;;;;4.53;1.70;;;;;;;5.51;83.91;98678.28;5012658;28;20205;-58
2022/01/09 11:27:22;;;;;;;6.17;1.50;;;;;;;5.41;80.77;98674.56;5012814;28;20221;-59
2022/01/09 11:29:47;;;;;;;3.00;1.37;;;;;;;5.49;81.68;98683.47;5012457;28;20181;-57
2022/01/09 11:32:30;;;;;;;5.83;1.67;;;;;;;5.59;81.49;98685.47;5017932;28;20228;-58
2022/01/09 11:35:33;;;;;;;5.50;1.90;;;;;;;5.75;81.03;98691.34;5012342;28;20229;-58